sensor_id;sensor_type;location;lat;lon;timestamp;P1;durP1;ratioP1;P2;durP2;ratioP2
49578;SDS011;35483;50.828;3.228;2023-03-23T00:00:51;3.50;;;2.20;;
49578;SDS011;35483;50.828;3.228;2023-03-23T00:03:16;2.45;;;2.25;;
49578;SDS011;35483;50.828;3.228;2023-03-23T00:05:43;2.22;;;2.03;;
49578;SDS011;35483;50.828;3.228;2023-03-23T00:08:18;2.30;;;2.10;;
49578;SDS011;35483;50.828;3.228;2023-03-23T00:10:49;2.67;;;2.00;;
49578;SDS011;35483;50.828;3.228;2023-03-23T00:13:23;2.25;;;1.92;;
49578;SDS011;35483;50.828;3.228;2023-03-23T00:15:49;2.78;;;1.88;;
49578;SDS011;35483;50.828;3.228;2023-03-23T00:18:17;4.15;;;2.20;;
49578;SDS011;35483;50.828;3.228;2023-03-23T00:20:52;3.15;;;1.83;;
49578;SDS011;35483;50.828;3.228;2023-03-23T00:23:21;2.70;;;2.03;;
49578;SDS011;35483;50.828;3.228;2023-03-23T00:25:49;2.63;;;2.05;;
49578;SDS011;35483;50.828;3.228;2023-03-23T00:28:18;2.33;;;2.00;;
49578;SDS011;35483;50.828;3.228;2023-03-23T00:30:59;3.22;;;2.15;;
49578;SDS011;35483;50.828;3.228;2023-03-23T00:33:28;2.95;;;1.83;;
49578;SDS011;35483;50.828;3.228;2023-03-23T00:35:55;2.50;;;2.10;;
49578;SDS011;35483;50.828;3.228;2023-03-23T00:38:22;1.88;;;1.63;;
49578;SDS011;35483;50.828;3.228;2023-03-23T00:40:48;3.40;;;1.90;;
49578;SDS011;35483;50.828;3.228;2023-03-23T00:43:15;2.63;;;1.63;;
49578;SDS011;35483;50.828;3.228;2023-03-23T00:45:43;3.05;;;1.70;;
49578;SDS011;35483;50.828;3.228;2023-03-23T00:50:44;2.10;;;1.60;;
49578;SDS011;35483;50.828;3.228;2023-03-23T00:53:11;1.88;;;1.48;;
49578;SDS011;35483;50.828;3.228;2023-03-23T00:55:37;2.65;;;1.50;;
49578;SDS011;35483;50.828;3.228;2023-03-23T00:58:02;1.85;;;1.65;;
49578;SDS011;35483;50.828;3.228;2023-03-23T01:00:28;1.98;;;1.35;;
49578;SDS011;35483;50.828;3.228;2023-03-23T01:02:54;2.15;;;1.77;;
49578;SDS011;35483;50.828;3.228;2023-03-23T01:05:20;1.63;;;1.52;;
49578;SDS011;35483;50.828;3.228;2023-03-23T01:07:45;1.60;;;1.50;;
49578;SDS011;35483;50.828;3.228;2023-03-23T01:10:13;2.67;;;1.88;;
49578;SDS011;35483;50.828;3.228;2023-03-23T01:12:43;1.70;;;1.52;;
49578;SDS011;35483;50.828;3.228;2023-03-23T01:15:13;2.65;;;1.60;;
49578;SDS011;35483;50.828;3.228;2023-03-23T01:17:42;2.25;;;1.48;;
49578;SDS011;35483;50.828;3.228;2023-03-23T01:20:10;2.53;;;1.60;;
49578;SDS011;35483;50.828;3.228;2023-03-23T01:22:42;1.50;;;1.40;;
49578;SDS011;35483;50.828;3.228;2023-03-23T01:25:08;2.20;;;1.80;;
49578;SDS011;35483;50.828;3.228;2023-03-23T01:27:37;2.35;;;1.55;;
49578;SDS011;35483;50.828;3.228;2023-03-23T01:30:04;1.80;;;1.58;;
49578;SDS011;35483;50.828;3.228;2023-03-23T01:32:31;2.22;;;1.77;;
49578;SDS011;35483;50.828;3.228;2023-03-23T01:34:57;1.95;;;1.50;;
49578;SDS011;35483;50.828;3.228;2023-03-23T01:37:24;2.17;;;1.50;;
49578;SDS011;35483;50.828;3.228;2023-03-23T01:39:54;2.05;;;1.60;;
49578;SDS011;35483;50.828;3.228;2023-03-23T01:42:25;3.38;;;2.00;;
49578;SDS011;35483;50.828;3.228;2023-03-23T01:47:36;2.00;;;1.67;;
49578;SDS011;35483;50.828;3.228;2023-03-23T01:50:02;4.43;;;1.77;;
49578;SDS011;35483;50.828;3.228;2023-03-23T01:52:29;3.20;;;1.55;;
49578;SDS011;35483;50.828;3.228;2023-03-23T01:54:55;1.70;;;1.40;;
49578;SDS011;35483;50.828;3.228;2023-03-23T01:57:23;1.95;;;1.60;;
49578;SDS011;35483;50.828;3.228;2023-03-23T01:59:55;3.92;;;1.40;;
49578;SDS011;35483;50.828;3.228;2023-03-23T02:02:24;3.75;;;1.88;;
49578;SDS011;35483;50.828;3.228;2023-03-23T02:04:51;3.63;;;1.65;;
49578;SDS011;35483;50.828;3.228;2023-03-23T02:07:23;5.13;;;2.05;;
49578;SDS011;35483;50.828;3.228;2023-03-23T02:09:50;2.58;;;2.00;;
49578;SDS011;35483;50.828;3.228;2023-03-23T02:12:16;2.75;;;1.50;;
49578;SDS011;35483;50.828;3.228;2023-03-23T02:14:42;5.32;;;1.70;;
49578;SDS011;35483;50.828;3.228;2023-03-23T02:17:27;3.60;;;1.70;;
49578;SDS011;35483;50.828;3.228;2023-03-23T02:23:04;3.88;;;1.50;;
49578;SDS011;35483;50.828;3.228;2023-03-23T02:25:58;2.33;;;1.50;;
49578;SDS011;35483;50.828;3.228;2023-03-23T02:34:14;2.97;;;1.83;;
49578;SDS011;35483;50.828;3.228;2023-03-23T02:36:50;5.45;;;1.58;;
49578;SDS011;35483;50.828;3.228;2023-03-23T02:39:49;3.25;;;2.00;;
49578;SDS011;35483;50.828;3.228;2023-03-23T02:42:19;4.47;;;1.73;;
49578;SDS011;35483;50.828;3.228;2023-03-23T02:44:50;2.92;;;1.52;;
49578;SDS011;35483;50.828;3.228;2023-03-23T02:47:19;3.85;;;1.40;;
49578;SDS011;35483;50.828;3.228;2023-03-23T02:49:48;2.05;;;1.50;;
49578;SDS011;35483;50.828;3.228;2023-03-23T02:52:21;3.47;;;1.50;;
49578;SDS011;35483;50.828;3.228;2023-03-23T02:54:50;2.40;;;1.38;;
49578;SDS011;35483;50.828;3.228;2023-03-23T02:57:17;6.40;;;2.25;;
49578;SDS011;35483;50.828;3.228;2023-03-23T02:59:43;3.08;;;1.38;;
49578;SDS011;35483;50.828;3.228;2023-03-23T03:02:31;3.08;;;1.50;;
49578;SDS011;35483;50.828;3.228;2023-03-23T03:05:04;2.35;;;1.45;;
49578;SDS011;35483;50.828;3.228;2023-03-23T03:10:23;3.03;;;1.40;;
49578;SDS011;35483;50.828;3.228;2023-03-23T03:13:29;4.25;;;1.58;;
49578;SDS011;35483;50.828;3.228;2023-03-23T03:16:04;3.20;;;1.58;;
49578;SDS011;35483;50.828;3.228;2023-03-23T03:19:04;4.20;;;1.30;;
49578;SDS011;35483;50.828;3.228;2023-03-23T03:21:42;4.10;;;1.85;;
49578;SDS011;35483;50.828;3.228;2023-03-23T03:24:10;3.75;;;1.58;;
49578;SDS011;35483;50.828;3.228;2023-03-23T03:26:41;4.28;;;2.38;;
49578;SDS011;35483;50.828;3.228;2023-03-23T03:29:13;3.72;;;1.65;;
49578;SDS011;35483;50.828;3.228;2023-03-23T03:31:42;2.65;;;1.30;;
49578;SDS011;35483;50.828;3.228;2023-03-23T03:34:10;4.65;;;1.60;;
49578;SDS011;35483;50.828;3.228;2023-03-23T03:36:38;4.07;;;1.58;;
49578;SDS011;35483;50.828;3.228;2023-03-23T03:39:07;3.88;;;1.70;;
49578;SDS011;35483;50.828;3.228;2023-03-23T03:41:35;5.25;;;1.58;;
49578;SDS011;35483;50.828;3.228;2023-03-23T03:44:03;4.72;;;1.80;;
49578;SDS011;35483;50.828;3.228;2023-03-23T03:46:30;3.38;;;1.67;;
49578;SDS011;35483;50.828;3.228;2023-03-23T03:48:57;4.95;;;1.50;;
49578;SDS011;35483;50.828;3.228;2023-03-23T03:51:24;6.00;;;1.80;;
49578;SDS011;35483;50.828;3.228;2023-03-23T03:53:52;5.13;;;1.90;;
49578;SDS011;35483;50.828;3.228;2023-03-23T03:56:17;5.45;;;1.67;;
49578;SDS011;35483;50.828;3.228;2023-03-23T03:58:45;7.03;;;1.73;;
49578;SDS011;35483;50.828;3.228;2023-03-23T04:01:13;5.32;;;1.70;;
49578;SDS011;35483;50.828;3.228;2023-03-23T04:03:40;6.70;;;1.85;;
49578;SDS011;35483;50.828;3.228;2023-03-23T04:06:06;4.15;;;2.08;;
49578;SDS011;35483;50.828;3.228;2023-03-23T04:08:34;4.57;;;1.98;;
49578;SDS011;35483;50.828;3.228;2023-03-23T04:11:03;5.78;;;1.80;;
49578;SDS011;35483;50.828;3.228;2023-03-23T04:13:29;4.55;;;1.77;;
49578;SDS011;35483;50.828;3.228;2023-03-23T04:15:55;6.35;;;2.53;;
49578;SDS011;35483;50.828;3.228;2023-03-23T04:18:21;5.88;;;2.50;;
49578;SDS011;35483;50.828;3.228;2023-03-23T04:20:48;7.63;;;2.13;;
49578;SDS011;35483;50.828;3.228;2023-03-23T04:23:15;5.35;;;2.28;;
49578;SDS011;35483;50.828;3.228;2023-03-23T04:25:46;5.47;;;2.10;;
49578;SDS011;35483;50.828;3.228;2023-03-23T04:28:13;5.88;;;2.08;;
49578;SDS011;35483;50.828;3.228;2023-03-23T04:30:42;7.15;;;2.22;;
49578;SDS011;35483;50.828;3.228;2023-03-23T04:33:08;9.98;;;3.25;;
49578;SDS011;35483;50.828;3.228;2023-03-23T04:35:42;5.97;;;2.05;;
49578;SDS011;35483;50.828;3.228;2023-03-23T04:38:10;7.28;;;2.70;;
49578;SDS011;35483;50.828;3.228;2023-03-23T04:40:40;6.50;;;2.33;;
49578;SDS011;35483;50.828;3.228;2023-03-23T04:43:06;6.63;;;2.80;;
49578;SDS011;35483;50.828;3.228;2023-03-23T04:45:33;5.22;;;2.35;;
49578;SDS011;35483;50.828;3.228;2023-03-23T04:48:03;6.20;;;2.78;;
49578;SDS011;35483;50.828;3.228;2023-03-23T04:50:31;6.68;;;2.47;;
49578;SDS011;35483;50.828;3.228;2023-03-23T04:53:00;8.43;;;2.30;;
49578;SDS011;35483;50.828;3.228;2023-03-23T04:55:31;3.85;;;2.40;;
49578;SDS011;35483;50.828;3.228;2023-03-23T04:58:03;13.15;;;4.47;;
49578;SDS011;35483;50.828;3.228;2023-03-23T05:00:33;6.15;;;2.50;;
49578;SDS011;35483;50.828;3.228;2023-03-23T05:03:02;9.02;;;2.53;;
49578;SDS011;35483;50.828;3.228;2023-03-23T05:05:29;7.50;;;2.33;;
49578;SDS011;35483;50.828;3.228;2023-03-23T05:07:55;7.13;;;1.90;;
49578;SDS011;35483;50.828;3.228;2023-03-23T05:10:22;5.65;;;1.80;;
49578;SDS011;35483;50.828;3.228;2023-03-23T05:12:49;3.75;;;1.77;;
49578;SDS011;35483;50.828;3.228;2023-03-23T05:15:15;4.78;;;1.80;;
49578;SDS011;35483;50.828;3.228;2023-03-23T05:17:42;8.02;;;1.52;;
49578;SDS011;35483;50.828;3.228;2023-03-23T05:20:14;2.58;;;1.30;;
49578;SDS011;35483;50.828;3.228;2023-03-23T05:22:48;2.90;;;1.70;;
49578;SDS011;35483;50.828;3.228;2023-03-23T05:25:14;5.97;;;1.63;;
49578;SDS011;35483;50.828;3.228;2023-03-23T05:27:44;4.07;;;1.30;;
49578;SDS011;35483;50.828;3.228;2023-03-23T05:30:14;4.68;;;1.33;;
49578;SDS011;35483;50.828;3.228;2023-03-23T05:32:44;5.30;;;1.70;;
49578;SDS011;35483;50.828;3.228;2023-03-23T05:35:10;3.25;;;1.30;;
49578;SDS011;35483;50.828;3.228;2023-03-23T05:37:37;3.53;;;1.38;;
49578;SDS011;35483;50.828;3.228;2023-03-23T05:40:03;4.03;;;1.40;;
49578;SDS011;35483;50.828;3.228;2023-03-23T05:42:34;4.97;;;1.70;;
49578;SDS011;35483;50.828;3.228;2023-03-23T05:45:01;4.40;;;1.60;;
49578;SDS011;35483;50.828;3.228;2023-03-23T05:47:30;4.70;;;1.40;;
49578;SDS011;35483;50.828;3.228;2023-03-23T05:49:58;3.30;;;1.75;;
49578;SDS011;35483;50.828;3.228;2023-03-23T05:52:26;6.53;;;1.92;;
49578;SDS011;35483;50.828;3.228;2023-03-23T05:54:53;4.15;;;1.90;;
49578;SDS011;35483;50.828;3.228;2023-03-23T05:57:19;3.90;;;1.60;;
49578;SDS011;35483;50.828;3.228;2023-03-23T05:59:48;3.15;;;1.50;;
49578;SDS011;35483;50.828;3.228;2023-03-23T06:02:14;3.80;;;2.00;;
49578;SDS011;35483;50.828;3.228;2023-03-23T06:04:41;4.50;;;1.92;;
49578;SDS011;35483;50.828;3.228;2023-03-23T06:07:07;3.60;;;1.80;;
49578;SDS011;35483;50.828;3.228;2023-03-23T06:09:39;5.95;;;1.70;;
49578;SDS011;35483;50.828;3.228;2023-03-23T06:12:05;7.32;;;2.10;;
49578;SDS011;35483;50.828;3.228;2023-03-23T06:14:32;4.75;;;1.80;;
49578;SDS011;35483;50.828;3.228;2023-03-23T06:16:59;5.00;;;1.90;;
49578;SDS011;35483;50.828;3.228;2023-03-23T06:19:25;4.80;;;2.30;;
49578;SDS011;35483;50.828;3.228;2023-03-23T06:21:56;6.28;;;2.13;;
49578;SDS011;35483;50.828;3.228;2023-03-23T06:24:23;2.80;;;2.10;;
49578;SDS011;35483;50.828;3.228;2023-03-23T06:26:49;4.25;;;2.17;;
49578;SDS011;35483;50.828;3.228;2023-03-23T06:29:17;6.20;;;2.38;;
49578;SDS011;35483;50.828;3.228;2023-03-23T06:31:48;7.15;;;2.83;;
49578;SDS011;35483;50.828;3.228;2023-03-23T06:34:17;7.77;;;3.80;;
49578;SDS011;35483;50.828;3.228;2023-03-23T06:36:43;8.35;;;3.75;;
49578;SDS011;35483;50.828;3.228;2023-03-23T06:39:09;6.00;;;2.20;;
49578;SDS011;35483;50.828;3.228;2023-03-23T06:41:36;3.05;;;1.92;;
49578;SDS011;35483;50.828;3.228;2023-03-23T06:44:02;8.40;;;4.35;;
49578;SDS011;35483;50.828;3.228;2023-03-23T06:46:28;4.38;;;2.47;;
49578;SDS011;35483;50.828;3.228;2023-03-23T06:48:56;4.45;;;2.33;;
49578;SDS011;35483;50.828;3.228;2023-03-23T06:51:22;5.53;;;2.35;;
49578;SDS011;35483;50.828;3.228;2023-03-23T06:53:49;3.05;;;2.15;;
49578;SDS011;35483;50.828;3.228;2023-03-23T06:56:15;3.45;;;2.40;;
49578;SDS011;35483;50.828;3.228;2023-03-23T06:58:47;3.88;;;2.30;;
49578;SDS011;35483;50.828;3.228;2023-03-23T07:01:14;5.68;;;1.98;;
49578;SDS011;35483;50.828;3.228;2023-03-23T07:03:41;2.80;;;1.65;;
49578;SDS011;35483;50.828;3.228;2023-03-23T07:06:08;5.68;;;2.05;;
49578;SDS011;35483;50.828;3.228;2023-03-23T07:08:35;4.28;;;1.70;;
49578;SDS011;35483;50.828;3.228;2023-03-23T07:11:03;3.75;;;1.98;;
49578;SDS011;35483;50.828;3.228;2023-03-23T07:13:30;4.47;;;1.85;;
49578;SDS011;35483;50.828;3.228;2023-03-23T07:18:26;3.58;;;1.73;;
49578;SDS011;35483;50.828;3.228;2023-03-23T07:20:52;4.13;;;1.80;;
49578;SDS011;35483;50.828;3.228;2023-03-23T07:23:18;5.57;;;1.90;;
49578;SDS011;35483;50.828;3.228;2023-03-23T07:25:44;3.25;;;1.73;;
49578;SDS011;35483;50.828;3.228;2023-03-23T07:28:13;4.45;;;1.75;;
49578;SDS011;35483;50.828;3.228;2023-03-23T07:30:41;3.45;;;1.88;;
49578;SDS011;35483;50.828;3.228;2023-03-23T07:33:08;3.92;;;1.58;;
49578;SDS011;35483;50.828;3.228;2023-03-23T07:35:35;2.25;;;1.77;;
49578;SDS011;35483;50.828;3.228;2023-03-23T07:38:03;1.67;;;1.30;;
49578;SDS011;35483;50.828;3.228;2023-03-23T07:40:31;2.47;;;1.42;;
49578;SDS011;35483;50.828;3.228;2023-03-23T07:43:02;3.03;;;1.60;;
49578;SDS011;35483;50.828;3.228;2023-03-23T07:45:29;4.28;;;1.90;;
49578;SDS011;35483;50.828;3.228;2023-03-23T07:47:58;2.83;;;1.63;;
49578;SDS011;35483;50.828;3.228;2023-03-23T07:55:23;4.28;;;1.52;;
49578;SDS011;35483;50.828;3.228;2023-03-23T07:57:50;2.42;;;1.30;;
49578;SDS011;35483;50.828;3.228;2023-03-23T08:00:18;3.85;;;1.80;;
49578;SDS011;35483;50.828;3.228;2023-03-23T08:02:49;3.00;;;1.60;;
49578;SDS011;35483;50.828;3.228;2023-03-23T08:05:22;3.45;;;1.60;;
49578;SDS011;35483;50.828;3.228;2023-03-23T08:07:53;1.90;;;1.60;;
49578;SDS011;35483;50.828;3.228;2023-03-23T08:10:21;2.75;;;1.77;;
49578;SDS011;35483;50.828;3.228;2023-03-23T08:12:52;4.63;;;1.55;;
49578;SDS011;35483;50.828;3.228;2023-03-23T08:15:20;3.40;;;1.52;;
49578;SDS011;35483;50.828;3.228;2023-03-23T08:17:49;7.00;;;2.00;;
49578;SDS011;35483;50.828;3.228;2023-03-23T08:20:16;3.97;;;2.13;;
49578;SDS011;35483;50.828;3.228;2023-03-23T08:22:45;4.05;;;1.70;;
49578;SDS011;35483;50.828;3.228;2023-03-23T08:25:20;2.60;;;1.37;;
49578;SDS011;35483;50.828;3.228;2023-03-23T08:27:47;4.93;;;1.35;;
49578;SDS011;35483;50.828;3.228;2023-03-23T08:30:14;2.55;;;1.20;;
49578;SDS011;35483;50.828;3.228;2023-03-23T08:32:44;4.00;;;2.22;;
49578;SDS011;35483;50.828;3.228;2023-03-23T08:35:11;2.45;;;1.40;;
49578;SDS011;35483;50.828;3.228;2023-03-23T08:37:38;3.50;;;1.23;;
49578;SDS011;35483;50.828;3.228;2023-03-23T08:40:04;3.60;;;1.67;;
49578;SDS011;35483;50.828;3.228;2023-03-23T08:42:37;4.15;;;1.75;;
49578;SDS011;35483;50.828;3.228;2023-03-23T08:45:05;2.42;;;1.27;;
49578;SDS011;35483;50.828;3.228;2023-03-23T08:47:32;5.80;;;2.30;;
49578;SDS011;35483;50.828;3.228;2023-03-23T08:50:02;5.03;;;2.45;;
49578;SDS011;35483;50.828;3.228;2023-03-23T08:52:29;3.92;;;2.20;;
49578;SDS011;35483;50.828;3.228;2023-03-23T08:54:55;3.65;;;1.50;;
49578;SDS011;35483;50.828;3.228;2023-03-23T08:57:22;2.85;;;1.95;;
49578;SDS011;35483;50.828;3.228;2023-03-23T08:59:51;2.17;;;1.98;;
49578;SDS011;35483;50.828;3.228;2023-03-23T09:02:22;3.10;;;1.73;;
49578;SDS011;35483;50.828;3.228;2023-03-23T09:04:48;4.03;;;1.80;;
49578;SDS011;35483;50.828;3.228;2023-03-23T09:07:16;4.45;;;1.55;;
49578;SDS011;35483;50.828;3.228;2023-03-23T09:09:43;3.30;;;2.00;;
49578;SDS011;35483;50.828;3.228;2023-03-23T09:12:09;3.38;;;2.03;;
49578;SDS011;35483;50.828;3.228;2023-03-23T09:14:36;3.85;;;2.17;;
49578;SDS011;35483;50.828;3.228;2023-03-23T09:17:06;3.80;;;1.95;;
49578;SDS011;35483;50.828;3.228;2023-03-23T09:19:33;5.20;;;1.77;;
49578;SDS011;35483;50.828;3.228;2023-03-23T09:22:00;3.90;;;1.73;;
49578;SDS011;35483;50.828;3.228;2023-03-23T09:24:27;4.85;;;2.25;;
49578;SDS011;35483;50.828;3.228;2023-03-23T09:26:54;7.55;;;1.98;;
49578;SDS011;35483;50.828;3.228;2023-03-23T09:29:20;7.35;;;2.53;;
49578;SDS011;35483;50.828;3.228;2023-03-23T09:31:46;3.03;;;1.77;;
49578;SDS011;35483;50.828;3.228;2023-03-23T09:34:12;6.00;;;2.13;;
49578;SDS011;35483;50.828;3.228;2023-03-23T09:36:40;4.80;;;2.30;;
49578;SDS011;35483;50.828;3.228;2023-03-23T09:39:07;3.67;;;2.13;;
49578;SDS011;35483;50.828;3.228;2023-03-23T09:41:45;3.85;;;1.90;;
49578;SDS011;35483;50.828;3.228;2023-03-23T09:47:10;5.75;;;2.30;;
49578;SDS011;35483;50.828;3.228;2023-03-23T09:50:07;6.75;;;2.13;;
49578;SDS011;35483;50.828;3.228;2023-03-23T09:52:50;7.65;;;2.92;;
49578;SDS011;35483;50.828;3.228;2023-03-23T09:55:17;4.32;;;2.13;;
49578;SDS011;35483;50.828;3.228;2023-03-23T10:02:45;5.80;;;2.25;;
49578;SDS011;35483;50.828;3.228;2023-03-23T10:05:23;7.15;;;3.30;;
49578;SDS011;35483;50.828;3.228;2023-03-23T10:07:51;9.85;;;2.78;;
49578;SDS011;35483;50.828;3.228;2023-03-23T10:10:17;5.50;;;2.35;;
49578;SDS011;35483;50.828;3.228;2023-03-23T10:21:01;7.80;;;3.10;;
49578;SDS011;35483;50.828;3.228;2023-03-23T10:23:35;7.45;;;2.70;;
49578;SDS011;35483;50.828;3.228;2023-03-23T10:31:49;8.73;;;2.80;;
49578;SDS011;35483;50.828;3.228;2023-03-23T10:34:27;3.88;;;2.38;;
49578;SDS011;35483;50.828;3.228;2023-03-23T10:40:04;5.65;;;2.50;;
49578;SDS011;35483;50.828;3.228;2023-03-23T10:42:39;8.40;;;2.80;;
49578;SDS011;35483;50.828;3.228;2023-03-23T10:45:25;3.90;;;2.05;;
49578;SDS011;35483;50.828;3.228;2023-03-23T10:50:43;5.75;;;2.58;;
49578;SDS011;35483;50.828;3.228;2023-03-23T10:53:17;5.63;;;2.10;;
49578;SDS011;35483;50.828;3.228;2023-03-23T11:00:58;6.68;;;2.25;;
49578;SDS011;35483;50.828;3.228;2023-03-23T11:03:29;5.07;;;2.53;;
49578;SDS011;35483;50.828;3.228;2023-03-23T11:05:59;6.28;;;2.80;;
49578;SDS011;35483;50.828;3.228;2023-03-23T11:08:29;9.32;;;3.22;;
49578;SDS011;35483;50.828;3.228;2023-03-23T11:11:15;9.05;;;3.53;;
49578;SDS011;35483;50.828;3.228;2023-03-23T11:13:59;9.60;;;3.85;;
49578;SDS011;35483;50.828;3.228;2023-03-23T11:18:56;8.15;;;3.25;;
49578;SDS011;35483;50.828;3.228;2023-03-23T11:21:39;9.60;;;3.08;;
49578;SDS011;35483;50.828;3.228;2023-03-23T11:24:11;9.63;;;2.95;;
49578;SDS011;35483;50.828;3.228;2023-03-23T11:26:38;6.82;;;2.88;;
49578;SDS011;35483;50.828;3.228;2023-03-23T11:29:12;8.88;;;2.63;;
49578;SDS011;35483;50.828;3.228;2023-03-23T11:34:13;8.55;;;2.33;;
49578;SDS011;35483;50.828;3.228;2023-03-23T11:41:57;4.95;;;2.53;;
49578;SDS011;35483;50.828;3.228;2023-03-23T11:44:32;6.43;;;2.65;;
49578;SDS011;35483;50.828;3.228;2023-03-23T11:47:07;5.38;;;2.40;;
49578;SDS011;35483;50.828;3.228;2023-03-23T11:49:43;10.93;;;2.90;;
49578;SDS011;35483;50.828;3.228;2023-03-23T11:52:24;6.10;;;2.10;;
49578;SDS011;35483;50.828;3.228;2023-03-23T11:58:00;8.77;;;2.58;;
49578;SDS011;35483;50.828;3.228;2023-03-23T12:00:33;9.07;;;2.78;;
49578;SDS011;35483;50.828;3.228;2023-03-23T12:03:02;4.50;;;2.33;;
49578;SDS011;35483;50.828;3.228;2023-03-23T12:05:43;6.03;;;3.28;;
49578;SDS011;35483;50.828;3.228;2023-03-23T12:14:11;10.50;;;3.17;;
49578;SDS011;35483;50.828;3.228;2023-03-23T12:17:00;6.90;;;2.88;;
49578;SDS011;35483;50.828;3.228;2023-03-23T12:19:37;6.65;;;2.30;;
49578;SDS011;35483;50.828;3.228;2023-03-23T12:27:18;6.13;;;2.50;;
49578;SDS011;35483;50.828;3.228;2023-03-23T12:32:33;8.63;;;3.20;;
49578;SDS011;35483;50.828;3.228;2023-03-23T12:37:59;6.20;;;3.00;;
49578;SDS011;35483;50.828;3.228;2023-03-23T12:40:36;6.40;;;2.92;;
49578;SDS011;35483;50.828;3.228;2023-03-23T12:48:32;6.22;;;2.28;;
49578;SDS011;35483;50.828;3.228;2023-03-23T12:54:03;7.57;;;2.70;;
49578;SDS011;35483;50.828;3.228;2023-03-23T12:58:53;6.38;;;2.65;;
49578;SDS011;35483;50.828;3.228;2023-03-23T13:01:28;8.15;;;2.63;;
49578;SDS011;35483;50.828;3.228;2023-03-23T13:04:00;7.03;;;2.95;;
49578;SDS011;35483;50.828;3.228;2023-03-23T13:06:34;6.47;;;2.63;;
49578;SDS011;35483;50.828;3.228;2023-03-23T13:09:05;6.13;;;2.42;;
49578;SDS011;35483;50.828;3.228;2023-03-23T13:11:47;8.30;;;3.15;;
49578;SDS011;35483;50.828;3.228;2023-03-23T13:14:23;8.70;;;3.22;;
49578;SDS011;35483;50.828;3.228;2023-03-23T13:22:59;7.22;;;3.03;;
49578;SDS011;35483;50.828;3.228;2023-03-23T13:25:59;7.80;;;3.35;;
49578;SDS011;35483;50.828;3.228;2023-03-23T13:31:16;10.32;;;3.33;;
49578;SDS011;35483;50.828;3.228;2023-03-23T13:33:51;7.18;;;3.20;;
49578;SDS011;35483;50.828;3.228;2023-03-23T13:36:27;15.18;;;4.45;;
49578;SDS011;35483;50.828;3.228;2023-03-23T13:39:03;8.85;;;4.07;;
49578;SDS011;35483;50.828;3.228;2023-03-23T13:41:32;11.52;;;5.88;;
49578;SDS011;35483;50.828;3.228;2023-03-23T13:44:39;19.95;;;7.80;;
49578;SDS011;35483;50.828;3.228;2023-03-23T13:46:53;25.38;;;8.30;;
49578;SDS011;35483;50.828;3.228;2023-03-23T13:49:33;15.60;;;5.43;;
49578;SDS011;35483;50.828;3.228;2023-03-23T13:52:16;4.30;;;2.88;;
49578;SDS011;35483;50.828;3.228;2023-03-23T13:54:46;7.13;;;2.50;;
49578;SDS011;35483;50.828;3.228;2023-03-23T13:59:59;15.63;;;3.83;;
49578;SDS011;35483;50.828;3.228;2023-03-23T14:02:39;8.57;;;3.35;;
49578;SDS011;35483;50.828;3.228;2023-03-23T14:05:31;5.80;;;2.95;;
49578;SDS011;35483;50.828;3.228;2023-03-23T14:08:14;6.80;;;2.92;;
49578;SDS011;35483;50.828;3.228;2023-03-23T14:16:03;6.80;;;2.83;;
49578;SDS011;35483;50.828;3.228;2023-03-23T14:18:39;7.32;;;2.88;;
49578;SDS011;35483;50.828;3.228;2023-03-23T14:21:22;9.07;;;2.97;;
49578;SDS011;35483;50.828;3.228;2023-03-23T14:23:55;7.63;;;3.20;;
49578;SDS011;35483;50.828;3.228;2023-03-23T14:26:24;6.75;;;3.70;;
49578;SDS011;35483;50.828;3.228;2023-03-23T14:28:51;8.25;;;3.22;;
49578;SDS011;35483;50.828;3.228;2023-03-23T14:31:27;6.57;;;3.00;;
49578;SDS011;35483;50.828;3.228;2023-03-23T14:33:54;11.27;;;2.90;;
49578;SDS011;35483;50.828;3.228;2023-03-23T14:36:26;8.68;;;3.40;;
49578;SDS011;35483;50.828;3.228;2023-03-23T14:39:02;11.93;;;4.28;;
49578;SDS011;35483;50.828;3.228;2023-03-23T14:41:40;9.07;;;2.60;;
49578;SDS011;35483;50.828;3.228;2023-03-23T14:44:10;5.93;;;2.70;;
49578;SDS011;35483;50.828;3.228;2023-03-23T14:46:41;7.40;;;2.85;;
49578;SDS011;35483;50.828;3.228;2023-03-23T14:49:11;5.32;;;1.92;;
49578;SDS011;35483;50.828;3.228;2023-03-23T14:51:53;5.97;;;2.53;;
49578;SDS011;35483;50.828;3.228;2023-03-23T14:54:24;5.88;;;2.97;;
49578;SDS011;35483;50.828;3.228;2023-03-23T14:56:52;5.55;;;2.60;;
49578;SDS011;35483;50.828;3.228;2023-03-23T14:59:19;6.28;;;2.28;;
49578;SDS011;35483;50.828;3.228;2023-03-23T15:01:46;9.73;;;3.90;;
49578;SDS011;35483;50.828;3.228;2023-03-23T15:04:16;6.63;;;2.55;;
49578;SDS011;35483;50.828;3.228;2023-03-23T15:06:48;8.75;;;2.65;;
49578;SDS011;35483;50.828;3.228;2023-03-23T15:09:21;11.68;;;4.88;;
49578;SDS011;35483;50.828;3.228;2023-03-23T15:12:06;9.95;;;5.70;;
49578;SDS011;35483;50.828;3.228;2023-03-23T15:14:53;10.80;;;4.90;;
49578;SDS011;35483;50.828;3.228;2023-03-23T15:17:24;10.32;;;4.85;;
49578;SDS011;35483;50.828;3.228;2023-03-23T15:19:52;7.55;;;4.10;;
49578;SDS011;35483;50.828;3.228;2023-03-23T15:24:53;14.77;;;6.70;;
49578;SDS011;35483;50.828;3.228;2023-03-23T15:27:28;8.95;;;4.22;;
49578;SDS011;35483;50.828;3.228;2023-03-23T15:29:57;7.22;;;2.80;;
49578;SDS011;35483;50.828;3.228;2023-03-23T15:32:31;9.05;;;3.10;;
49578;SDS011;35483;50.828;3.228;2023-03-23T15:35:04;10.50;;;3.22;;
49578;SDS011;35483;50.828;3.228;2023-03-23T15:37:42;12.82;;;4.75;;
49578;SDS011;35483;50.828;3.228;2023-03-23T15:40:23;4.78;;;2.60;;
49578;SDS011;35483;50.828;3.228;2023-03-23T15:43:04;7.88;;;2.72;;
49578;SDS011;35483;50.828;3.228;2023-03-23T15:45:54;10.63;;;5.30;;
49578;SDS011;35483;50.828;3.228;2023-03-23T15:48:30;19.38;;;9.52;;
49578;SDS011;35483;50.828;3.228;2023-03-23T15:50:58;10.40;;;6.10;;
49578;SDS011;35483;50.828;3.228;2023-03-23T15:55:59;5.45;;;3.53;;
49578;SDS011;35483;50.828;3.228;2023-03-23T15:58:26;5.72;;;3.30;;
49578;SDS011;35483;50.828;3.228;2023-03-23T16:00:53;4.75;;;2.40;;
49578;SDS011;35483;50.828;3.228;2023-03-23T16:03:29;7.03;;;3.33;;
49578;SDS011;35483;50.828;3.228;2023-03-23T16:06:02;6.15;;;2.80;;
49578;SDS011;35483;50.828;3.228;2023-03-23T16:08:29;5.00;;;2.50;;
49578;SDS011;35483;50.828;3.228;2023-03-23T16:10:59;7.03;;;2.80;;
49578;SDS011;35483;50.828;3.228;2023-03-23T16:13:24;5.97;;;2.38;;
49578;SDS011;35483;50.828;3.228;2023-03-23T16:15:55;7.07;;;2.40;;
49578;SDS011;35483;50.828;3.228;2023-03-23T16:18:21;10.88;;;3.03;;
49578;SDS011;35483;50.828;3.228;2023-03-23T16:20:49;6.38;;;2.40;;
49578;SDS011;35483;50.828;3.228;2023-03-23T16:23:15;6.35;;;2.85;;
49578;SDS011;35483;50.828;3.228;2023-03-23T16:25:41;6.18;;;2.90;;
49578;SDS011;35483;50.828;3.228;2023-03-23T16:28:13;7.70;;;2.88;;
49578;SDS011;35483;50.828;3.228;2023-03-23T16:30:40;4.43;;;2.53;;
49578;SDS011;35483;50.828;3.228;2023-03-23T16:33:07;10.00;;;4.18;;
49578;SDS011;35483;50.828;3.228;2023-03-23T16:35:33;9.00;;;4.30;;
49578;SDS011;35483;50.828;3.228;2023-03-23T16:38:00;10.30;;;4.72;;
49578;SDS011;35483;50.828;3.228;2023-03-23T16:40:26;6.70;;;4.80;;
49578;SDS011;35483;50.828;3.228;2023-03-23T16:42:54;8.02;;;4.72;;
49578;SDS011;35483;50.828;3.228;2023-03-23T16:45:23;6.65;;;3.70;;
49578;SDS011;35483;50.828;3.228;2023-03-23T16:47:50;6.78;;;2.90;;
49578;SDS011;35483;50.828;3.228;2023-03-23T16:50:18;7.75;;;4.25;;
49578;SDS011;35483;50.828;3.228;2023-03-23T16:52:45;9.95;;;3.60;;
49578;SDS011;35483;50.828;3.228;2023-03-23T16:55:14;7.65;;;3.40;;
49578;SDS011;35483;50.828;3.228;2023-03-23T16:57:41;9.05;;;3.05;;
49578;SDS011;35483;50.828;3.228;2023-03-23T17:00:08;6.22;;;3.17;;
49578;SDS011;35483;50.828;3.228;2023-03-23T17:02:39;6.25;;;3.00;;
49578;SDS011;35483;50.828;3.228;2023-03-23T17:05:06;7.38;;;3.22;;
49578;SDS011;35483;50.828;3.228;2023-03-23T17:07:32;7.80;;;3.50;;